Time;durP1;ratioP1;P1;durP2;ratioP2;P2;SDS_P1;SDS_P2;PMS_P1;PMS_P2;Temp;Humidity;BMP_temperature;BMP_pressure;BME280_temperature;BME280_humidity;BME280_pressure;Samples;Min_cycle;Max_cycle;Signal;HPM_P1;HPM_P2
2023/07/19 00:01:58;;;;;;;2.30;0.85;;;23.20;62.70;;;;;;5014041;28;20045;-59
2023/07/19 00:04:24;;;;;;;1.98;0.68;;;23.20;62.70;;;;;;5015476;28;20473;-59
2023/07/19 00:06:50;;;;;;;1.77;0.80;;;23.20;62.70;;;;;;5014153;28;20500;-59
2023/07/19 00:09:15;;;;;;;2.38;0.60;;;23.20;62.70;;;;;;5015406;28;20080;-59
2023/07/19 00:11:41;;;;;;;1.98;0.98;;;23.20;62.80;;;;;;5013719;28;20091;-59
2023/07/19 00:14:07;;;;;;;1.23;0.70;;;23.10;62.70;;;;;;5014556;28;20081;-59
2023/07/19 00:16:32;;;;;;;1.90;0.77;;;23.20;62.80;;;;;;5014669;28;20045;-59
2023/07/19 00:18:58;;;;;;;2.20;0.70;;;23.20;62.70;;;;;;5014078;28;20383;-59
2023/07/19 00:21:24;;;;;;;1.02;0.45;;;23.20;62.80;;;;;;5014292;28;20049;-59
2023/07/19 00:23:49;;;;;;;2.13;0.73;;;23.20;62.80;;;;;;5014628;28;20095;-59
2023/07/19 00:26:16;;;;;;;2.65;0.80;;;23.10;62.80;;;;;;5013508;28;20041;-58
2023/07/19 00:28:41;;;;;;;2.17;0.70;;;23.10;62.80;;;;;;5014659;28;20049;-59
2023/07/19 00:31:07;;;;;;;5.03;1.00;;;23.10;62.80;;;;;;5014712;28;20048;-59
2023/07/19 00:33:33;;;;;;;2.15;0.73;;;23.10;62.70;;;;;;5014011;28;20046;-59
2023/07/19 00:35:58;;;;;;;1.73;0.60;;;23.10;62.80;;;;;;5014739;28;20077;-59
2023/07/19 00:38:24;;;;;;;1.85;0.77;;;23.10;62.80;;;;;;5014825;28;20478;-59
2023/07/19 00:40:49;;;;;;;1.35;0.75;;;23.10;62.80;;;;;;5013826;28;20108;-59
2023/07/19 00:43:15;;;;;;;1.52;0.77;;;23.10;62.80;;;;;;5014806;28;20044;-59
2023/07/19 00:45:47;;;;;;;2.15;0.70;;;23.10;62.80;;;;;;5014522;28;20045;-59
2023/07/19 00:48:14;;;;;;;1.60;0.60;;;23.10;62.80;;;;;;5013770;28;20129;-59
2023/07/19 00:50:40;;;;;;;0.70;0.50;;;23.10;62.80;;;;;;5014296;28;20049;-59
2023/07/19 00:53:06;;;;;;;1.40;0.60;;;23.10;62.80;;;;;;5013221;28;20048;-59
2023/07/19 00:55:31;;;;;;;1.00;0.60;;;23.10;62.80;;;;;;5011828;28;20518;-59
2023/07/19 00:57:57;;;;;;;1.58;0.55;;;23.10;62.90;;;;;;5014535;28;20073;-59
2023/07/19 01:00:22;;;;;;;2.47;0.68;;;23.10;62.80;;;;;;5013106;28;20053;-59
2023/07/19 01:02:48;;;;;;;1.98;0.70;;;23.10;62.80;;;;;;5011933;28;20044;-59
2023/07/19 01:05:14;;;;;;;1.73;0.80;;;23.10;62.80;;;;;;5012836;28;20045;-59
2023/07/19 01:07:39;;;;;;;1.58;0.70;;;23.10;62.80;;;;;;5013960;28;20091;-59
2023/07/19 01:10:05;;;;;;;2.15;0.70;;;23.10;63.40;;;;;;5013276;28;20088;-59
2023/07/19 01:12:31;;;;;;;1.00;0.60;;;23.10;62.80;;;;;;5012524;28;20053;-59
2023/07/19 01:14:56;;;;;;;3.42;0.60;;;23.00;62.80;;;;;;5014206;28;20042;-59
2023/07/19 01:17:22;;;;;;;2.08;0.70;;;23.10;62.80;;;;;;5013541;28;20054;-59
2023/07/19 01:19:47;;;;;;;1.63;0.60;;;23.10;62.80;;;;;;5013910;28;20045;-59
2023/07/19 01:22:13;;;;;;;1.35;0.70;;;23.00;62.70;;;;;;5014072;28;20045;-59
2023/07/19 01:24:40;;;;;;;1.80;1.00;;;23.00;62.80;;;;;;5011236;28;20038;-59
2023/07/19 01:27:06;;;;;;;3.00;0.80;;;23.10;62.90;;;;;;5013778;28;20046;-59
2023/07/19 01:29:32;;;;;;;1.45;0.70;;;23.00;62.80;;;;;;5012625;28;20405;-59
2023/07/19 01:31:57;;;;;;;1.65;0.60;;;23.00;63.50;;;;;;5016237;28;20059;-59
2023/07/19 01:34:23;;;;;;;1.10;0.60;;;23.00;62.80;;;;;;5021694;28;20049;-59
2023/07/19 01:36:48;;;;;;;1.30;0.60;;;23.00;62.80;;;;;;5012462;28;20049;-60
2023/07/19 01:39:14;;;;;;;2.40;0.85;;;23.00;62.90;;;;;;5013429;28;20409;-61
2023/07/19 01:41:39;;;;;;;2.42;0.65;;;23.00;62.90;;;;;;5013327;28;20042;-59
2023/07/19 01:44:05;;;;;;;2.75;0.63;;;23.00;62.90;;;;;;5012982;28;20128;-59
2023/07/19 01:46:31;;;;;;;1.85;0.70;;;23.00;62.90;;;;;;5013332;28;20046;-59
2023/07/19 01:48:56;;;;;;;1.27;0.60;;;23.00;62.90;;;;;;5027278;28;20052;-59
2023/07/19 01:51:22;;;;;;;1.88;0.70;;;23.00;62.90;;;;;;5032542;28;20053;-59
2023/07/19 01:53:47;;;;;;;2.30;0.70;;;23.00;62.90;;;;;;5032892;28;20041;-59
2023/07/19 01:56:14;;;;;;;1.25;0.63;;;23.00;62.90;;;;;;5032490;28;20064;-59
2023/07/19 01:58:39;;;;;;;1.98;0.63;;;23.00;62.90;;;;;;5031920;28;20061;-60
2023/07/19 02:01:05;;;;;;;1.83;0.90;;;23.00;62.90;;;;;;5032742;28;20049;-59
2023/07/19 02:03:30;;;;;;;3.78;0.73;;;23.00;62.90;;;;;;5032879;28;20052;-59
2023/07/19 02:05:58;;;;;;;2.75;0.77;;;23.00;62.90;;;;;;5032057;28;20045;-59
2023/07/19 02:08:24;;;;;;;1.52;0.60;;;23.00;62.90;;;;;;5031683;28;20493;-59
2023/07/19 02:10:50;;;;;;;1.77;0.57;;;23.00;62.90;;;;;;5032681;28;20139;-59
2023/07/19 02:13:15;;;;;;;1.77;0.65;;;23.00;62.90;;;;;;5032385;28;20175;-59
2023/07/19 02:15:41;;;;;;;1.55;0.70;;;22.90;62.90;;;;;;5032145;28;20044;-59
2023/07/19 02:18:06;;;;;;;1.88;0.70;;;23.00;63.00;;;;;;5032722;28;20084;-59
2023/07/19 02:20:32;;;;;;;2.45;0.65;;;23.00;63.00;;;;;;5030334;28;20041;-59
2023/07/19 02:22:57;;;;;;;1.95;0.88;;;23.00;63.00;;;;;;5033013;28;20084;-59
2023/07/19 02:25:23;;;;;;;1.08;0.60;;;23.00;63.00;;;;;;5031111;28;20053;-59
2023/07/19 02:27:48;;;;;;;1.27;0.70;;;23.00;63.00;;;;;;5031790;28;20049;-59
2023/07/19 02:30:14;;;;;;;2.05;0.82;;;23.00;63.00;;;;;;5032604;28;20045;-59
2023/07/19 02:32:40;;;;;;;2.42;0.80;;;23.00;63.00;;;;;;5031797;28;20091;-59
2023/07/19 02:35:06;;;;;;;1.20;0.50;;;23.00;63.10;;;;;;5032809;28;20137;-59
2023/07/19 02:37:32;;;;;;;1.42;0.52;;;23.00;63.00;;;;;;5032527;28;20128;-60
2023/07/19 02:39:57;;;;;;;1.58;0.73;;;22.90;63.00;;;;;;5031708;28;20045;-59
2023/07/19 02:42:23;;;;;;;2.13;0.70;;;22.90;63.00;;;;;;5032766;28;20459;-59
2023/07/19 02:44:49;;;;;;;1.45;0.82;;;22.90;63.00;;;;;;5030780;28;20049;-58
2023/07/19 02:47:14;;;;;;;0.93;0.52;;;23.00;63.00;;;;;;5031757;28;20049;-59
2023/07/19 02:49:41;;;;;;;2.05;0.90;;;23.00;63.00;;;;;;5032107;28;20053;-59
2023/07/19 02:52:07;;;;;;;1.67;0.70;;;22.90;63.00;;;;;;5032365;28;20049;-59
2023/07/19 02:54:33;;;;;;;1.38;0.57;;;22.90;63.00;;;;;;5030478;28;20065;-59
2023/07/19 02:56:58;;;;;;;1.70;0.75;;;22.90;63.00;;;;;;5032380;28;20037;-59
2023/07/19 02:59:24;;;;;;;1.00;0.60;;;22.90;63.00;;;;;;5032579;28;20116;-59
2023/07/19 03:01:50;;;;;;;1.20;0.52;;;22.90;63.00;;;;;;5031433;28;20040;-58
2023/07/19 03:04:15;;;;;;;3.03;0.60;;;22.90;63.00;;;;;;5032472;28;20151;-59
2023/07/19 03:06:41;;;;;;;1.00;0.50;;;22.90;63.00;;;;;;5031962;28;20057;-59
2023/07/19 03:09:06;;;;;;;1.48;0.80;;;22.90;63.10;;;;;;5031480;28;20042;-59
2023/07/19 03:11:32;;;;;;;2.20;0.80;;;22.90;63.00;;;;;;5031509;28;20051;-59
2023/07/19 03:13:58;;;;;;;0.88;0.60;;;22.90;63.10;;;;;;5032408;28;20073;-59
2023/07/19 03:16:23;;;;;;;1.42;0.60;;;22.90;63.00;;;;;;5031787;28;20415;-59
2023/07/19 03:18:49;;;;;;;1.42;0.60;;;22.90;63.10;;;;;;5031721;28;20112;-59
2023/07/19 03:21:14;;;;;;;0.88;0.63;;;22.90;63.10;;;;;;5032331;28;20045;-59
2023/07/19 03:23:40;;;;;;;0.82;0.50;;;22.90;63.10;;;;;;5030903;28;20426;-59
2023/07/19 03:26:07;;;;;;;0.98;0.60;;;22.90;63.10;;;;;;5032129;28;20042;-59
2023/07/19 03:28:32;;;;;;;2.20;0.75;;;22.90;63.10;;;;;;5035386;28;20089;-58
2023/07/19 03:30:58;;;;;;;1.33;0.60;;;22.90;63.10;;;;;;5033744;28;20064;-59
2023/07/19 03:33:24;;;;;;;1.08;0.63;;;22.90;63.10;;;;;;5036003;28;20076;-59
2023/07/19 03:35:50;;;;;;;1.92;0.60;;;22.90;63.10;;;;;;5035716;28;20041;-59
2023/07/19 03:38:17;;;;;;;1.27;0.80;;;22.90;63.20;;;;;;5034970;28;20473;-59
2023/07/19 03:40:43;;;;;;;1.38;0.60;;;22.90;63.10;;;;;;5033928;28;20096;-59
2023/07/19 03:43:08;;;;;;;1.33;0.70;;;22.90;63.20;;;;;;5034473;28;20041;-59
2023/07/19 03:45:34;;;;;;;1.75;0.80;;;22.90;63.20;;;;;;5035254;28;20122;-59
2023/07/19 03:47:59;;;;;;;1.48;0.52;;;22.90;63.20;;;;;;5035365;28;20044;-59
2023/07/19 03:50:25;;;;;;;1.98;0.65;;;22.90;63.20;;;;;;5034936;28;20095;-59
2023/07/19 03:52:51;;;;;;;2.13;0.60;;;22.80;63.10;;;;;;5034912;28;20048;-59
2023/07/19 03:55:16;;;;;;;1.35;0.60;;;22.80;63.20;;;;;;5035158;28;20555;-59
2023/07/19 03:57:42;;;;;;;0.95;0.60;;;22.80;63.20;;;;;;5034402;28;20046;-59
2023/07/19 04:00:09;;;;;;;1.33;0.65;;;22.80;63.20;;;;;;5034120;28;20099;-59
2023/07/19 04:02:34;;;;;;;1.60;0.90;;;22.80;63.20;;;;;;5021547;28;20481;-59
2023/07/19 04:05:00;;;;;;;2.13;0.68;;;22.80;63.20;;;;;;5021171;28;20050;-59
2023/07/19 04:07:26;;;;;;;2.45;0.70;;;22.80;63.20;;;;;;5030139;28;20042;-59
2023/07/19 04:09:51;;;;;;;1.30;0.50;;;22.80;63.20;;;;;;5014292;28;20440;-59
2023/07/19 04:12:17;;;;;;;1.10;0.63;;;22.80;63.20;;;;;;5014711;28;20504;-59
2023/07/19 04:14:43;;;;;;;1.10;0.70;;;22.80;63.20;;;;;;5014639;28;20187;-59
2023/07/19 04:17:10;;;;;;;1.08;0.50;;;22.80;63.20;;;;;;5015307;28;20038;-59
2023/07/19 04:19:36;;;;;;;1.13;0.47;;;22.80;63.30;;;;;;5014574;28;20034;-59
2023/07/19 04:22:01;;;;;;;1.67;0.70;;;22.80;63.20;;;;;;5014783;28;20121;-59
2023/07/19 04:24:27;;;;;;;0.85;0.60;;;22.80;63.30;;;;;;5015097;28;20509;-59
2023/07/19 04:26:52;;;;;;;2.03;0.70;;;22.80;63.20;;;;;;5013934;28;20604;-59
2023/07/19 04:29:19;;;;;;;1.50;0.60;;;22.80;63.30;;;;;;5014631;28;20054;-59
2023/07/19 04:31:45;;;;;;;1.20;0.80;;;22.80;63.30;;;;;;5014399;28;20390;-59
2023/07/19 04:34:11;;;;;;;1.60;0.63;;;22.80;63.30;;;;;;5014274;28;20445;-59
2023/07/19 04:36:39;;;;;;;0.88;0.57;;;22.80;63.30;;;;;;5014186;28;20116;-59
2023/07/19 04:39:05;;;;;;;1.20;0.60;;;22.80;63.30;;;;;;5013403;28;20042;-59
2023/07/19 04:41:32;;;;;;;1.17;0.70;;;22.80;63.30;;;;;;5013731;28;20096;-59
2023/07/19 04:43:58;;;;;;;1.05;0.65;;;22.80;63.30;;;;;;5014065;28;20048;-59
2023/07/19 04:46:24;;;;;;;1.58;0.70;;;22.80;63.40;;;;;;5012706;28;20041;-60
2023/07/19 04:48:49;;;;;;;1.60;0.70;;;22.80;63.30;;;;;;5012936;28;20061;-59
2023/07/19 04:51:15;;;;;;;1.70;0.70;;;22.80;63.30;;;;;;5014757;28;20049;-60
2023/07/19 04:53:40;;;;;;;1.23;0.70;;;22.80;63.40;;;;;;5013386;28;20060;-59
2023/07/19 04:56:06;;;;;;;1.42;0.80;;;22.80;63.40;;;;;;5014342;28;20515;-60
2023/07/19 04:58:32;;;;;;;1.52;0.57;;;22.80;63.40;;;;;;5014307;28;20038;-59
2023/07/19 05:01:08;;;;;;;1.35;0.60;;;22.80;63.40;;;;;;5013324;28;20037;-59
2023/07/19 05:03:34;;;;;;;1.80;0.73;;;22.80;63.40;;;;;;5013838;28;20128;-59
2023/07/19 05:06:00;;;;;;;1.58;0.93;;;22.80;63.40;;;;;;5014357;28;20117;-59
2023/07/19 05:08:28;;;;;;;3.50;0.85;;;22.80;63.40;;;;;;5013051;28;20512;-59
2023/07/19 05:10:54;;;;;;;0.73;0.55;;;22.70;63.40;;;;;;5014168;28;20058;-59
2023/07/19 05:13:20;;;;;;;0.60;0.50;;;22.80;63.40;;;;;;5013027;28;20041;-59
2023/07/19 05:15:45;;;;;;;1.95;0.70;;;22.80;63.40;;;;;;5013035;28;20476;-59
2023/07/19 05:18:11;;;;;;;1.52;0.73;;;22.70;63.40;;;;;;5014159;28;20056;-59
2023/07/19 05:20:36;;;;;;;1.60;0.77;;;22.70;63.40;;;;;;5012278;28;20481;-59
2023/07/19 05:23:02;;;;;;;1.42;0.80;;;22.70;63.40;;;;;;5014056;28;20046;-59
2023/07/19 05:25:28;;;;;;;3.38;0.88;;;22.70;63.40;;;;;;5013819;28;20393;-59
2023/07/19 05:27:53;;;;;;;1.40;0.60;;;22.70;63.40;;;;;;5013499;28;20056;-59
2023/07/19 05:30:19;;;;;;;1.15;0.70;;;22.80;63.50;;;;;;5013166;28;20160;-59
2023/07/19 05:32:44;;;;;;;1.73;0.70;;;22.70;63.40;;;;;;5016059;28;20500;-59
2023/07/19 05:35:10;;;;;;;1.33;0.80;;;22.80;63.50;;;;;;5021504;28;20034;-59
2023/07/19 05:37:36;;;;;;;0.90;0.60;;;22.70;63.50;;;;;;5012662;28;20038;-59
2023/07/19 05:40:04;;;;;;;1.08;0.70;;;22.70;63.60;;;;;;5013419;28;20046;-58
2023/07/19 05:42:30;;;;;;;0.93;0.60;;;22.70;63.60;;;;;;5013490;28;20072;-58
2023/07/19 05:44:55;;;;;;;1.50;0.80;;;22.70;63.60;;;;;;5012908;28;20492;-58
2023/07/19 05:47:21;;;;;;;1.52;0.90;;;22.80;63.60;;;;;;5012066;28;20046;-58
2023/07/19 05:49:47;;;;;;;1.73;0.80;;;22.70;63.70;;;;;;5018525;28;20111;-59
2023/07/19 05:52:12;;;;;;;1.50;0.70;;;22.80;63.70;;;;;;5033003;28;20073;-60
2023/07/19 05:54:38;;;;;;;4.68;1.10;;;22.80;63.80;;;;;;5032135;28;20060;-59
2023/07/19 05:57:04;;;;;;;2.08;0.90;;;22.80;64.00;;;;;;5031989;28;20136;-59
2023/07/19 05:59:30;;;;;;;1.90;0.65;;;22.80;64.10;;;;;;5031298;28;20481;-59
2023/07/19 06:01:56;;;;;;;3.38;0.93;;;22.80;64.20;;;;;;5031639;28;20053;-59
2023/07/19 06:04:21;;;;;;;2.85;0.70;;;22.80;64.20;;;;;;5032353;28;20048;-59
2023/07/19 06:06:47;;;;;;;2.60;0.80;;;22.80;64.30;;;;;;5032572;28;20048;-59
2023/07/19 06:09:12;;;;;;;1.60;0.70;;;22.80;64.30;;;;;;5033027;28;20045;-58
2023/07/19 06:11:38;;;;;;;2.70;0.80;;;22.80;64.40;;;;;;5031470;28;20397;-59
2023/07/19 06:14:04;;;;;;;1.75;0.90;;;22.80;64.40;;;;;;5030733;28;20108;-59
2023/07/19 06:16:29;;;;;;;2.15;0.60;;;22.80;64.40;;;;;;5031884;28;20072;-59
2023/07/19 06:18:55;;;;;;;3.10;0.70;;;22.80;64.40;;;;;;5032069;28;20068;-59
2023/07/19 06:21:24;;;;;;;2.63;0.82;;;22.80;64.50;;;;;;5032796;28;20045;-59
2023/07/19 06:23:50;;;;;;;2.38;0.98;;;22.80;64.60;;;;;;5032455;28;20041;-59
2023/07/19 06:26:15;;;;;;;2.03;0.82;;;22.80;64.60;;;;;;5031906;28;20122;-59
2023/07/19 06:28:41;;;;;;;1.85;0.73;;;22.80;64.60;;;;;;5032501;28;20077;-60
2023/07/19 06:31:07;;;;;;;3.60;0.90;;;22.90;64.60;;;;;;5032243;28;20111;-60
2023/07/19 06:33:32;;;;;;;3.00;0.70;;;22.90;64.70;;;;;;5031369;28;20052;-60
2023/07/19 06:35:58;;;;;;;2.47;0.70;;;22.90;64.70;;;;;;5031468;28;20045;-60
2023/07/19 06:38:25;;;;;;;1.90;0.70;;;22.80;64.60;;;;;;5032707;28;20053;-60
2023/07/19 06:40:51;;;;;;;3.45;1.08;;;22.80;64.70;;;;;;5031551;28;20412;-60
2023/07/19 06:43:16;;;;;;;1.58;0.90;;;22.90;64.80;;;;;;5031378;28;20045;-60
2023/07/19 06:45:44;;;;;;;3.13;1.20;;;22.90;64.90;;;;;;5030709;28;20041;-60
2023/07/19 06:48:09;;;;;;;2.67;0.90;;;22.90;64.90;;;;;;5031975;28;20049;-59
2023/07/19 06:50:35;;;;;;;2.20;0.70;;;22.90;64.90;;;;;;5032018;28;20045;-60
2023/07/19 06:53:01;;;;;;;2.38;0.98;;;22.90;65.00;;;;;;5030346;28;20038;-60
2023/07/19 06:55:27;;;;;;;1.65;0.80;;;22.90;65.00;;;;;;5032201;28;20053;-60
2023/07/19 06:57:53;;;;;;;2.17;0.70;;;22.90;65.10;;;;;;5030925;28;20041;-60
2023/07/19 07:00:19;;;;;;;2.90;0.80;;;22.90;65.10;;;;;;5030373;28;20124;-59
2023/07/19 07:02:47;;;;;;;2.45;0.88;;;23.00;65.10;;;;;;5035590;28;20119;-59
2023/07/19 07:05:13;;;;;;;2.97;0.90;;;23.00;65.10;;;;;;5036328;28;20041;-60
2023/07/19 07:07:42;;;;;;;3.22;0.90;;;23.00;65.10;;;;;;5035049;28;20075;-60
2023/07/19 07:10:09;;;;;;;4.65;1.08;;;23.00;65.10;;;;;;5036120;28;20041;-60
2023/07/19 07:12:37;;;;;;;2.40;0.90;;;23.00;65.10;;;;;;5036020;28;20516;-59
2023/07/19 07:15:03;;;;;;;3.63;0.70;;;23.00;65.10;;;;;;5035621;28;20049;-60
2023/07/19 07:17:29;;;;;;;3.10;0.80;;;23.00;65.10;;;;;;5029382;28;20038;-60
2023/07/19 07:19:54;;;;;;;3.28;0.90;;;23.00;65.20;;;;;;5034058;28;20030;-60
2023/07/19 07:22:20;;;;;;;2.72;1.00;;;23.00;65.10;;;;;;5035214;28;20499;-59
2023/07/19 07:24:46;;;;;;;1.50;0.60;;;23.00;65.10;;;;;;5035721;28;20176;-64
2023/07/19 07:27:11;;;;;;;2.05;0.70;;;23.00;65.10;;;;;;5034559;28;20099;-60
2023/07/19 07:29:41;;;;;;;4.25;0.98;;;23.00;65.10;;;;;;5034951;28;20504;-60
2023/07/19 07:32:13;;;;;;;3.90;0.98;;;23.00;65.00;;;;;;5033814;28;20049;-60
2023/07/19 07:34:39;;;;;;;3.72;0.80;;;23.00;65.10;;;;;;5027000;28;20184;-60
2023/07/19 07:37:05;;;;;;;2.92;0.90;;;23.00;65.10;;;;;;5015383;28;20536;-59
2023/07/19 07:39:31;;;;;;;4.38;0.90;;;23.00;65.20;;;;;;5014238;28;20117;-59
2023/07/19 07:41:56;;;;;;;3.55;1.00;;;23.00;65.10;;;;;;5015953;28;20129;-60
2023/07/19 07:44:22;;;;;;;2.95;0.80;;;23.00;65.10;;;;;;5013884;28;20406;-60
2023/07/19 07:46:49;;;;;;;3.30;1.00;;;23.00;65.10;;;;;;5014081;28;20072;-60
2023/07/19 07:49:14;;;;;;;6.30;0.90;;;23.00;65.10;;;;;;5015063;28;20139;-60
2023/07/19 07:51:40;;;;;;;3.28;0.80;;;23.00;65.00;;;;;;5014211;28;20500;-60
2023/07/19 07:54:05;;;;;;;4.85;1.00;;;23.00;65.00;;;;;;5015427;28;20050;-60
2023/07/19 07:56:31;;;;;;;4.30;0.80;;;23.00;64.90;;;;;;5013058;28;20107;-60
2023/07/19 07:58:57;;;;;;;2.30;0.80;;;23.00;64.90;;;;;;5015652;28;20044;-60
2023/07/19 08:01:23;;;;;;;2.58;0.90;;;23.00;64.90;;;;;;5015524;28;20038;-60
2023/07/19 08:03:48;;;;;;;5.18;1.10;;;23.00;64.90;;;;;;5014263;28;20046;-60
2023/07/19 08:06:14;;;;;;;2.72;1.13;;;23.10;65.00;;;;;;5015443;28;20045;-59
2023/07/19 08:08:40;;;;;;;5.65;0.90;;;23.00;64.80;;;;;;5015096;28;20046;-59
2023/07/19 08:11:05;;;;;;;3.28;0.90;;;23.10;64.80;;;;;;5014702;28;20042;-59
2023/07/19 08:13:31;;;;;;;2.17;0.88;;;23.10;64.90;;;;;;5014496;28;20398;-60
2023/07/19 08:15:56;;;;;;;4.32;0.90;;;23.00;64.80;;;;;;5015543;28;20077;-60
2023/07/19 08:18:22;;;;;;;2.58;1.10;;;23.10;64.80;;;;;;5014124;28;20049;-61
2023/07/19 08:20:48;;;;;;;3.15;0.95;;;23.10;64.80;;;;;;5013826;28;20849;-60
2023/07/19 08:23:14;;;;;;;2.47;1.05;;;23.10;64.80;;;;;;5014020;28;20493;-60
2023/07/19 08:25:40;;;;;;;2.47;0.98;;;23.10;64.70;;;;;;5011901;28;20038;-60
2023/07/19 08:28:06;;;;;;;4.05;1.05;;;23.10;64.70;;;;;;5013470;28;20045;-60
2023/07/19 08:30:32;;;;;;;2.42;0.80;;;23.10;64.60;;;;;;5015027;28;20042;-60
2023/07/19 08:32:57;;;;;;;3.38;0.90;;;23.10;64.60;;;;;;5014377;28;20326;-60
2023/07/19 08:35:23;;;;;;;3.05;0.93;;;23.10;64.50;;;;;;5015377;28;20042;-60
2023/07/19 08:37:48;;;;;;;2.75;0.90;;;23.10;64.50;;;;;;5015129;28;20120;-60
2023/07/19 08:40:15;;;;;;;2.05;0.80;;;23.10;64.60;;;;;;5024261;28;20042;-60
2023/07/19 08:42:42;;;;;;;1.77;0.85;;;23.10;64.50;;;;;;5015508;28;20061;-60
2023/07/19 08:45:08;;;;;;;3.20;0.80;;;23.10;64.50;;;;;;5013529;28;20046;-60
2023/07/19 08:47:35;;;;;;;2.97;0.77;;;23.10;64.50;;;;;;5013448;28;20053;-60
2023/07/19 08:50:04;;;;;;;1.30;0.80;;;23.10;64.50;;;;;;5014385;28;20116;-60
2023/07/19 08:52:30;;;;;;;2.17;0.80;;;23.10;64.50;;;;;;5013471;28;20052;-60
2023/07/19 08:54:56;;;;;;;2.20;0.95;;;23.10;64.50;;;;;;5013663;28;20053;-60
2023/07/19 08:57:21;;;;;;;1.45;0.73;;;23.10;64.40;;;;;;5014442;28;20046;-60
2023/07/19 08:59:47;;;;;;;3.20;0.60;;;23.10;64.50;;;;;;5013541;28;20537;-60
2023/07/19 09:02:13;;;;;;;2.95;0.77;;;23.10;64.50;;;;;;5014335;28;20482;-60
2023/07/19 09:04:39;;;;;;;2.58;0.95;;;23.20;64.50;;;;;;5013993;28;20091;-60
2023/07/19 09:07:05;;;;;;;2.83;1.10;;;23.10;64.40;;;;;;5013556;28;20050;-60
2023/07/19 09:09:31;;;;;;;2.80;0.80;;;23.20;64.40;;;;;;5013689;28;20190;-60
2023/07/19 09:11:57;;;;;;;2.85;0.75;;;23.20;64.50;;;;;;5014533;28;20046;-60
2023/07/19 09:14:38;;;;;;;1.85;0.90;;;23.20;64.40;;;;;;5013221;28;20123;-60
2023/07/19 09:17:04;;;;;;;2.85;0.82;;;23.20;64.40;;;;;;5014358;28;20064;-60
2023/07/19 09:19:30;;;;;;;1.15;0.60;;;23.10;64.40;;;;;;5014077;28;20077;-60
2023/07/19 09:21:57;;;;;;;3.15;0.82;;;23.20;64.40;;;;;;5013470;28;20092;-60
2023/07/19 09:24:22;;;;;;;1.67;0.85;;;23.20;64.40;;;;;;5013070;28;20038;-59
2023/07/19 09:26:52;;;;;;;1.65;0.90;;;23.20;64.40;;;;;;5013689;28;20084;-60
2023/07/19 09:29:20;;;;;;;1.35;0.63;;;23.20;64.40;;;;;;5013146;28;20069;-60
2023/07/19 09:31:53;;;;;;;1.83;0.75;;;23.20;64.30;;;;;;5013578;28;20038;-60
2023/07/19 09:34:23;;;;;;;2.47;0.93;;;23.20;64.30;;;;;;5012601;28;20140;-59
2023/07/19 09:36:49;;;;;;;1.98;0.70;;;23.20;64.30;;;;;;5012926;28;20649;-59
2023/07/19 09:39:16;;;;;;;1.58;0.70;;;23.20;64.20;;;;;;5023780;28;20069;-59
2023/07/19 09:41:43;;;;;;;2.03;0.70;;;23.20;64.30;;;;;;5012649;28;20129;-59
2023/07/19 09:44:09;;;;;;;2.70;0.77;;;23.20;64.30;;;;;;5012809;28;20049;-59
2023/07/19 09:46:36;;;;;;;1.98;0.70;;;23.20;64.30;;;;;;5012172;28;20060;-59
2023/07/19 09:49:02;;;;;;;2.90;0.90;;;23.20;64.30;;;;;;5011436;28;20053;-60
2023/07/19 09:51:28;;;;;;;1.95;0.82;;;23.20;64.30;;;;;;5012383;28;20045;-59
2023/07/19 09:53:54;;;;;;;1.70;0.82;;;23.20;64.30;;;;;;4996122;28;20236;-59
2023/07/19 09:56:19;;;;;;;2.10;0.70;;;23.20;64.40;;;;;;5011362;28;20061;-59
2023/07/19 09:58:45;;;;;;;2.08;0.68;;;23.20;64.40;;;;;;5011825;28;20125;-62
2023/07/19 10:01:10;;;;;;;0.95;0.57;;;23.10;64.30;;;;;;5012333;28;20046;-60
2023/07/19 10:03:36;;;;;;;2.75;0.65;;;23.20;64.30;;;;;;5021886;28;20060;-60
2023/07/19 10:06:02;;;;;;;2.85;0.77;;;23.20;64.40;;;;;;5032002;28;20464;-60
2023/07/19 10:08:28;;;;;;;2.47;0.80;;;23.10;64.80;;;;;;5032915;28;20081;-60
2023/07/19 10:10:57;;;;;;;2.55;0.82;;;23.10;64.10;;;;;;5031748;28;20044;-60
2023/07/19 10:13:30;;;;;;;3.47;0.70;;;23.10;64.20;;;;;;5032896;28;20401;-60
2023/07/19 10:15:58;;;;;;;2.67;0.70;;;23.10;64.20;;;;;;5033082;28;20037;-60
2023/07/19 10:18:24;;;;;;;2.35;0.70;;;23.10;64.20;;;;;;5032181;28;20116;-59
2023/07/19 10:21:03;;;;;;;3.70;0.90;;;23.10;64.20;;;;;;5031359;28;20342;-60
2023/07/19 10:23:32;;;;;;;2.55;0.93;;;23.10;64.10;;;;;;5032914;28;20088;-60
2023/07/19 10:25:58;;;;;;;3.05;0.70;;;23.10;64.20;;;;;;5031955;28;20057;-59
2023/07/19 10:28:29;;;;;;;3.17;0.70;;;23.10;64.10;;;;;;5031341;28;20038;-59
2023/07/19 10:30:58;;;;;;;1.25;0.60;;;23.10;64.10;;;;;;5031677;28;20041;-59
2023/07/19 10:33:25;;;;;;;3.38;0.75;;;23.10;63.90;;;;;;5032474;28;20077;-60
2023/07/19 10:35:52;;;;;;;4.88;0.80;;;23.10;64.00;;;;;;5031856;28;20046;-60
2023/07/19 10:38:22;;;;;;;4.05;1.08;;;23.20;64.10;;;;;;5031884;28;20893;-59
2023/07/19 10:40:58;;;;;;;4.45;0.88;;;23.10;64.10;;;;;;5032365;28;20556;-60
2023/07/19 10:43:25;;;;;;;3.28;0.90;;;23.20;64.10;;;;;;5031793;28;20460;-59
2023/07/19 10:45:52;;;;;;;5.47;1.08;;;23.20;64.00;;;;;;5030770;28;20397;-60
2023/07/19 10:48:18;;;;;;;5.45;1.00;;;23.20;64.10;;;;;;5032378;28;20041;-59
2023/07/19 10:50:44;;;;;;;3.22;0.82;;;23.20;64.20;;;;;;5031944;28;20041;-59
2023/07/19 10:53:10;;;;;;;1.67;1.00;;;23.20;64.20;;;;;;5030682;28;20080;-59
2023/07/19 10:55:36;;;;;;;4.00;1.30;;;23.20;64.30;;;;;;5031497;28;20084;-60
2023/07/19 10:58:01;;;;;;;4.82;1.27;;;23.20;64.30;;;;;;5031148;28;20146;-59
2023/07/19 11:00:27;;;;;;;5.28;1.10;;;23.30;64.30;;;;;;5031782;28;20037;-59
2023/07/19 11:02:59;;;;;;;2.50;0.90;;;23.30;64.20;;;;;;5030736;28;20124;-60
2023/07/19 11:05:27;;;;;;;2.40;0.95;;;23.30;64.10;;;;;;5032311;28;20041;-61
2023/07/19 11:07:53;;;;;;;3.13;0.88;;;23.30;64.20;;;;;;5027654;28;20041;-59
2023/07/19 11:10:21;;;;;;;3.85;1.20;;;23.30;64.20;;;;;;5031986;28;20061;-59
2023/07/19 11:12:47;;;;;;;6.35;1.42;;;23.40;64.20;;;;;;5030898;28;20049;-59
2023/07/19 11:15:16;;;;;;;;;;;23.40;64.30;;;;;;5031733;28;20060;-60
2023/07/19 11:17:42;;;;;;;4.18;0.90;;;23.40;64.20;;;;;;5031526;28;19928;-62
2023/07/19 11:20:08;;;;;;;5.68;1.35;;;23.40;64.20;;;;;;5029788;28;20397;-63
2023/07/19 11:22:34;;;;;;;6.75;0.95;;;23.40;64.30;;;;;;5030791;28;20033;-60
2023/07/19 11:24:59;;;;;;;5.55;1.20;;;23.50;64.30;;;;;;5029883;28;20049;-60
2023/07/19 11:27:35;;;;;;;5.05;1.33;;;23.40;64.30;;;;;;5030255;28;20485;-59
2023/07/19 11:30:01;;;;;;;6.35;1.55;;;23.50;64.50;;;;;;5031736;28;20115;-60
2023/07/19 11:32:27;;;;;;;2.85;0.90;;;23.40;64.40;;;;;;5032105;28;20378;-59
2023/07/19 11:34:57;;;;;;;2.80;1.02;;;23.50;64.50;;;;;;5025512;28;20048;-59
2023/07/19 11:37:29;;;;;;;3.38;1.00;;;23.50;64.40;;;;;;5021166;28;20038;-60
2023/07/19 11:39:57;;;;;;;2.00;0.90;;;23.40;64.40;;;;;;5012515;28;20144;-60
2023/07/19 11:42:42;;;;;;;4.30;1.27;;;23.40;64.40;;;;;;5014947;28;20065;-60
2023/07/19 11:45:18;;;;;;;3.85;0.80;;;23.40;64.50;;;;;;5020538;28;20048;-60
2023/07/19 11:47:47;;;;;;;4.38;0.90;;;23.40;64.60;;;;;;5011922;28;20100;-60
2023/07/19 11:50:12;;;;;;;5.00;1.20;;;23.40;64.60;;;;;;5014892;28;20397;-60
2023/07/19 11:52:51;;;;;;;2.17;0.90;;;23.40;64.70;;;;;;5015193;28;20045;-60
2023/07/19 11:55:18;;;;;;;1.85;0.98;;;23.40;64.70;;;;;;5015545;28;20041;-60
2023/07/19 11:57:44;;;;;;;2.83;0.80;;;23.40;64.70;;;;;;5015244;28;20129;-60
2023/07/19 12:00:11;;;;;;;1.45;0.90;;;23.50;64.70;;;;;;5014532;28;20046;-60
2023/07/19 12:02:36;;;;;;;4.93;1.02;;;23.50;64.70;;;;;;5014619;28;20038;-60
2023/07/19 12:05:04;;;;;;;4.45;0.88;;;23.50;64.70;;;;;;5016017;28;20045;-60
2023/07/19 12:07:31;;;;;;;2.60;0.82;;;23.50;64.70;;;;;;5015159;28;20042;-60
2023/07/19 12:09:57;;;;;;;5.70;1.17;;;23.50;64.60;;;;;;5027918;28;20049;-60
2023/07/19 12:12:23;;;;;;;3.67;0.95;;;23.50;64.60;;;;;;5035402;28;20063;-60
2023/07/19 12:14:48;;;;;;;3.38;0.90;;;23.50;64.60;;;;;;5033492;28;20235;-60
2023/07/19 12:17:14;;;;;;;2.50;1.08;;;23.60;64.60;;;;;;5033050;28;20476;-60
2023/07/19 12:19:40;;;;;;;3.03;0.85;;;23.60;64.60;;;;;;5034817;28;20034;-60
2023/07/19 12:22:05;;;;;;;4.78;0.95;;;23.60;64.60;;;;;;5033679;28;20045;-60
2023/07/19 12:24:34;;;;;;;2.17;0.93;;;23.60;64.50;;;;;;5033388;28;20049;-60
2023/07/19 12:26:59;;;;;;;4.22;0.90;;;23.60;64.50;;;;;;5034831;28;20053;-60
2023/07/19 12:29:25;;;;;;;3.75;0.90;;;23.60;64.50;;;;;;5034975;28;20532;-60
2023/07/19 12:31:52;;;;;;;3.40;0.90;;;23.60;64.50;;;;;;5033976;28;20081;-60
2023/07/19 12:34:20;;;;;;;3.90;0.60;;;23.60;64.50;;;;;;5034675;28;20092;-60
2023/07/19 12:36:47;;;;;;;;;;;23.60;64.50;;;;;;5034682;28;20080;-60
2023/07/19 12:39:13;;;;;;;2.10;0.80;;;23.60;64.50;;;;;;5033842;28;19921;-60
2023/07/19 12:41:39;;;;;;;1.90;0.68;;;23.60;64.60;;;;;;5033929;28;20330;-60
2023/07/19 12:44:06;;;;;;;2.22;0.80;;;23.60;64.60;;;;;;5034568;28;20041;-60